createdAt,value
2022-08-07T00:00:29.123Z,17.18
2022-08-07T00:02:55.449Z,17.59
2022-08-07T00:05:23.638Z,17.67
2022-08-07T00:07:58.295Z,17.11
2022-08-07T00:10:30.371Z,17.08
2022-08-07T00:13:01.093Z,17.38
2022-08-07T00:15:36.127Z,17.22
2022-08-07T00:18:05.399Z,16.91
2022-08-07T00:20:35.324Z,17.17
2022-08-07T00:23:02.363Z,17.13
2022-08-07T00:25:28.822Z,17.32
2022-08-07T00:28:04.192Z,16.99
2022-08-07T00:30:31.397Z,17.15
2022-08-07T00:33:02.110Z,17.14
2022-08-07T00:35:29.687Z,17.01
2022-08-07T00:37:56.957Z,16.98
2022-08-07T00:40:39.374Z,16.98
2022-08-07T00:43:09.860Z,17.10
2022-08-07T00:45:38.651Z,17.18
2022-08-07T00:48:09.114Z,17.08
2022-08-07T00:50:46.113Z,16.69
2022-08-07T00:53:12.734Z,16.98
2022-08-07T00:56:00.774Z,16.77
2022-08-07T00:58:25.431Z,16.63
2022-08-07T01:00:53.601Z,16.76
2022-08-07T01:03:25.437Z,16.58
2022-08-07T01:06:08.526Z,16.70
2022-08-07T01:08:35.041Z,16.63
2022-08-07T01:12:04.243Z,17.07
2022-08-07T01:13:55.763Z,16.66
2022-08-07T01:16:30.059Z,16.50
2022-08-07T01:18:57.834Z,16.31
2022-08-07T01:21:26.160Z,15.62
2022-08-07T01:23:56.687Z,16.11
2022-08-07T01:26:26.020Z,16.18
2022-08-07T01:28:53.525Z,16.02
2022-08-07T01:31:21.719Z,15.51
2022-08-07T01:33:57.477Z,15.93
2022-08-07T01:36:33.886Z,16.24
2022-08-07T01:39:04.236Z,16.26
2022-08-07T01:41:37.505Z,16.32
2022-08-07T01:44:05.331Z,16.19
2022-08-07T01:46:32.026Z,16.18
2022-08-07T01:48:59.970Z,16.33
2022-08-07T01:52:03.131Z,16.45
2022-08-07T01:54:33.177Z,16.31
2022-08-07T01:57:24.150Z,16.00
2022-08-07T02:00:01.899Z,16.01
2022-08-07T02:03:18.174Z,16.09
2022-08-07T02:05:48.169Z,15.96
2022-08-07T02:08:23.769Z,16.21
2022-08-07T02:10:55.257Z,15.97
2022-08-07T02:13:56.828Z,15.53
2022-08-07T02:16:15.386Z,15.41
2022-08-07T02:18:46.836Z,15.44
2022-08-07T02:21:16.236Z,15.09
2022-08-07T02:23:44.836Z,15.03
2022-08-07T02:26:34.189Z,15.33
2022-08-07T02:29:00.728Z,15.59
2022-08-07T02:31:29.295Z,15.53
2022-08-07T02:34:04.365Z,15.11
2022-08-07T02:36:40.370Z,14.86
2022-08-07T02:39:16.563Z,15.52
2022-08-07T02:41:56.557Z,15.57
2022-08-07T02:44:27.451Z,15.79
2022-08-07T02:46:56.112Z,15.60
2022-08-07T02:49:56.485Z,15.51
2022-08-07T02:52:13.958Z,15.69
2022-08-07T02:54:42.396Z,15.62
2022-08-07T02:57:13.475Z,15.46
2022-08-07T02:59:44.256Z,15.75
2022-08-07T03:02:21.613Z,15.87
2022-08-07T03:04:48.720Z,15.43
2022-08-07T03:07:16.367Z,15.56
2022-08-07T03:09:52.442Z,15.66
2022-08-07T03:12:22.234Z,15.41
2022-08-07T03:14:52.238Z,15.53
2022-08-07T03:17:19.702Z,15.42
2022-08-07T03:19:54.755Z,15.40
2022-08-07T03:22:24.233Z,15.78
2022-08-07T03:24:56.225Z,15.66
2022-08-07T03:27:29.957Z,15.64
2022-08-07T03:29:58.613Z,15.60
2022-08-07T03:32:28.400Z,15.63
2022-08-07T03:35:00.926Z,15.47
2022-08-07T03:37:53.814Z,15.63
2022-08-07T03:40:22.613Z,15.48
2022-08-07T03:42:50.889Z,15.55
2022-08-07T03:45:29.987Z,15.17
2022-08-07T03:47:58.350Z,14.88
2022-08-07T03:50:25.456Z,14.89
2022-08-07T03:52:58.033Z,15.23
2022-08-07T03:55:24.564Z,15.38
2022-08-07T03:59:07.308Z,14.83
2022-08-07T04:01:00.339Z,14.19
2022-08-07T04:03:26.972Z,14.65
2022-08-07T04:05:53.448Z,14.86
2022-08-07T04:08:26.257Z,14.75
2022-08-07T04:10:54.090Z,15.07
2022-08-07T04:14:09.296Z,14.73
2022-08-07T04:16:30.352Z,15.17
2022-08-07T04:19:01.331Z,15.00
2022-08-07T04:21:31.893Z,15.12
2022-08-07T04:24:07.318Z,14.93
2022-08-07T04:26:34.582Z,15.14
2022-08-07T04:29:01.563Z,15.07
2022-08-07T04:31:39.120Z,15.56
2022-08-07T04:34:17.429Z,15.18
2022-08-07T04:36:54.228Z,15.27
2022-08-07T04:39:25.856Z,15.33
2022-08-07T04:41:52.721Z,15.51
2022-08-07T04:44:19.337Z,15.23
2022-08-07T04:47:08.542Z,15.13
2022-08-07T04:50:03.501Z,15.58
2022-08-07T04:52:46.652Z,15.33
2022-08-07T04:58:12.863Z,15.36
2022-08-07T04:59:18.325Z,15.69
2022-08-07T05:01:42.277Z,15.53
2022-08-07T05:04:47.099Z,16.03
2022-08-07T05:07:30.636Z,15.94
2022-08-07T05:10:24.681Z,15.85
2022-08-07T05:14:44.875Z,15.90
2022-08-07T05:15:53.975Z,15.76
2022-08-07T05:18:32.148Z,15.84
2022-08-07T05:21:04.013Z,15.82
2022-08-07T05:23:41.838Z,16.00
2022-08-07T05:26:23.627Z,16.22
2022-08-07T05:28:53.008Z,16.26
2022-08-07T05:31:23.031Z,16.15
2022-08-07T05:34:04.620Z,16.48
2022-08-07T05:36:35.458Z,16.50
2022-08-07T05:40:06.571Z,16.77
2022-08-07T05:42:02.497Z,16.41
2022-08-07T05:44:30.869Z,16.90
2022-08-07T05:47:01.070Z,16.75
2022-08-07T05:49:40.608Z,16.70
2022-08-07T05:52:07.981Z,16.86
2022-08-07T05:54:44.497Z,17.14
2022-08-07T05:57:20.991Z,17.39
2022-08-07T05:59:57.231Z,17.58
2022-08-07T06:02:29.053Z,17.22
2022-08-07T06:05:01.577Z,17.64
2022-08-07T06:08:14.725Z,17.44
2022-08-07T06:10:17.705Z,17.03
2022-08-07T06:12:45.352Z,17.27
2022-08-07T06:15:16.248Z,17.86
2022-08-07T06:17:53.439Z,17.35
2022-08-07T06:20:25.223Z,17.07
2022-08-07T06:23:02.153Z,16.89
2022-08-07T06:25:54.894Z,17.22
2022-08-07T06:28:27.221Z,17.56
2022-08-07T06:30:56.312Z,18.21
2022-08-07T06:33:25.371Z,17.98
2022-08-07T06:36:12.138Z,17.56
2022-08-07T06:38:38.093Z,17.55
2022-08-07T06:41:15.612Z,17.56
2022-08-07T06:43:46.168Z,17.74
2022-08-07T06:46:14.209Z,17.96
2022-08-07T06:48:41.978Z,18.26
2022-08-07T06:51:15.540Z,18.68
2022-08-07T06:55:29.206Z,18.63
2022-08-07T06:56:49.474Z,18.35
2022-08-07T07:00:12.031Z,18.33
2022-08-07T07:02:08.543Z,19.43
2022-08-07T07:04:38.008Z,19.06
2022-08-07T07:07:10.379Z,19.26
2022-08-07T07:09:47.179Z,19.13
2022-08-07T07:12:15.643Z,20.10
2022-08-07T07:15:01.234Z,19.63
2022-08-07T07:18:02.176Z,19.66
2022-08-07T07:20:39.314Z,20.59
2022-08-07T07:24:10.106Z,19.80
2022-08-07T07:29:28.542Z,19.99
2022-08-07T07:31:44.428Z,21.17
2022-08-07T07:34:16.387Z,20.09
2022-08-07T07:36:47.801Z,23.76
2022-08-07T07:39:22.607Z,29.90
2022-08-07T07:42:13.009Z,25.38
2022-08-07T07:44:41.872Z,22.45
2022-08-07T07:47:17.491Z,20.98
2022-08-07T07:50:32.445Z,21.09
2022-08-07T07:52:40.881Z,23.74
2022-08-07T07:55:10.938Z,25.78
2022-08-07T07:57:52.433Z,27.04
2022-08-07T08:00:29.401Z,23.41
2022-08-07T08:03:06.275Z,22.99
2022-08-07T08:05:50.834Z,22.97
2022-08-07T08:08:35.497Z,21.88
2022-08-07T08:11:05.716Z,22.40
2022-08-07T08:13:52.999Z,26.33
2022-08-07T08:16:26.166Z,28.26
2022-08-07T08:18:57.924Z,29.71
2022-08-07T08:21:25.538Z,26.18
2022-08-07T08:24:36.517Z,25.64
2022-08-07T08:27:06.009Z,25.58
2022-08-07T08:29:54.598Z,24.38
2022-08-07T08:32:38.083Z,22.77
2022-08-07T08:35:06.968Z,23.16
2022-08-07T08:38:01.012Z,24.15
2022-08-07T08:40:32.302Z,23.62
2022-08-07T08:43:08.894Z,23.68
2022-08-07T08:45:59.607Z,22.38
2022-08-07T08:48:50.916Z,21.28
2022-08-07T08:51:49.580Z,22.56
2022-08-07T08:54:24.178Z,22.38
2022-08-07T08:56:53.960Z,22.71
2022-08-07T08:59:47.891Z,22.35
2022-08-07T09:02:39.512Z,22.98
2022-08-07T09:05:37.175Z,22.77
2022-08-07T09:08:39.296Z,22.93
2022-08-07T09:11:50.534Z,23.39
2022-08-07T09:14:31.101Z,23.44
2022-08-07T09:17:06.167Z,23.15
2022-08-07T09:19:52.601Z,26.07
2022-08-07T09:24:28.390Z,26.63
2022-08-07T09:26:07.296Z,25.08
2022-08-07T09:30:05.650Z,24.53
2022-08-07T09:31:49.213Z,24.57
2022-08-07T09:34:24.515Z,22.75
2022-08-07T09:37:05.982Z,21.15
2022-08-07T09:39:53.739Z,20.97
2022-08-07T09:42:52.348Z,22.57
2022-08-07T09:47:50.852Z,22.46
2022-08-07T09:50:01.911Z,22.16
2022-08-07T09:52:10.265Z,23.39
2022-08-07T09:54:54.252Z,24.39
2022-08-07T09:57:46.377Z,23.66
2022-08-07T10:00:20.775Z,23.97
2022-08-07T10:04:07.207Z,24.22
2022-08-07T10:06:38.504Z,24.66
2022-08-07T10:09:59.216Z,24.73
2022-08-07T10:12:53.151Z,24.53
2022-08-07T10:15:44.545Z,24.49
2022-08-07T10:18:26.539Z,24.66
2022-08-07T10:21:19.762Z,24.41
2022-08-07T10:24:21.598Z,24.66
2022-08-07T10:27:16.633Z,24.59
2022-08-07T10:29:56.785Z,24.58
2022-08-07T10:32:53.306Z,24.15
2022-08-07T10:35:55.837Z,23.42
2022-08-07T10:38:48.734Z,23.73
2022-08-07T10:41:47.325Z,23.80
2022-08-07T10:44:45.179Z,23.02
2022-08-07T10:47:53.105Z,23.23
2022-08-07T10:50:26.243Z,22.67
2022-08-07T10:53:08.919Z,23.61
2022-08-07T10:55:53.509Z,23.60
2022-08-07T10:58:46.137Z,23.52
2022-08-07T11:01:35.879Z,24.89
2022-08-07T11:04:34.830Z,25.06
2022-08-07T11:07:24.825Z,24.07
2022-08-07T11:10:17.016Z,23.42
2022-08-07T11:13:02.324Z,25.23
2022-08-07T11:15:33.467Z,25.58
2022-08-07T11:18:09.961Z,24.29
2022-08-07T11:20:49.472Z,24.36
2022-08-07T11:23:39.423Z,24.94
2022-08-07T11:26:17.611Z,24.96
2022-08-07T11:28:55.257Z,24.70
2022-08-07T11:31:57.413Z,24.16
2022-08-07T11:34:53.389Z,24.64
2022-08-07T11:38:12.470Z,24.37
2022-08-07T11:40:49.852Z,24.62
2022-08-07T11:43:41.194Z,24.11
2022-08-07T11:46:18.046Z,24.47
2022-08-07T11:49:50.855Z,24.63
2022-08-07T11:52:17.711Z,25.12
2022-08-07T11:56:15.534Z,24.83
2022-08-07T11:58:33.853Z,24.64
2022-08-07T12:01:20.236Z,24.62
2022-08-07T12:04:13.505Z,25.66
2022-08-07T12:06:57.297Z,24.95
2022-08-07T12:09:49.212Z,24.52
2022-08-07T12:12:25.635Z,24.07
2022-08-07T12:15:02.010Z,23.96
2022-08-07T12:17:59.648Z,24.37
2022-08-07T12:20:37.748Z,22.95
2022-08-07T12:24:06.083Z,22.61
2022-08-07T12:26:34.478Z,24.26
2022-08-07T12:29:15.611Z,24.62
2022-08-07T12:32:03.797Z,23.59
2022-08-07T12:34:34.321Z,24.14
2022-08-07T12:37:01.981Z,24.09
2022-08-07T12:39:43.786Z,22.78
2022-08-07T12:42:27.048Z,22.40
2022-08-07T12:44:57.732Z,21.96
2022-08-07T12:47:41.739Z,22.44
2022-08-07T12:50:38.611Z,22.70
2022-08-07T12:54:24.152Z,23.23
2022-08-07T12:56:35.737Z,23.05
2022-08-07T12:59:04.824Z,23.70
2022-08-07T13:02:02.608Z,23.39
2022-08-07T13:06:02.008Z,23.38
2022-08-07T13:08:18.882Z,23.44
2022-08-07T13:11:03.134Z,23.05
2022-08-07T13:13:48.606Z,23.80
2022-08-07T13:16:40.026Z,23.59
2022-08-07T13:19:45.944Z,23.02
2022-08-07T13:22:27.712Z,24.09
2022-08-07T13:25:02.531Z,23.63
2022-08-07T13:28:11.389Z,24.28
2022-08-07T13:30:40.296Z,24.94
2022-08-07T13:34:29.851Z,23.86
2022-08-07T13:36:26.017Z,23.96
2022-08-07T13:39:13.136Z,23.79
2022-08-07T13:41:58.229Z,24.42
2022-08-07T13:44:34.496Z,23.85
2022-08-07T13:47:09.395Z,24.21
2022-08-07T13:50:35.133Z,23.67
2022-08-07T13:52:38.104Z,23.59
2022-08-07T13:55:19.730Z,23.56
2022-08-07T13:58:05.102Z,23.53
2022-08-07T14:00:50.522Z,24.14
2022-08-07T14:03:29.960Z,24.00
2022-08-07T14:06:11.965Z,24.90
2022-08-07T14:08:53.601Z,23.65
2022-08-07T14:11:22.767Z,24.86
2022-08-07T14:13:53.966Z,25.17
2022-08-07T14:16:27.291Z,25.07
2022-08-07T14:19:01.408Z,24.32
2022-08-07T14:22:02.853Z,24.64
2022-08-07T14:24:36.801Z,24.66
2022-08-07T14:28:11.492Z,24.79
2022-08-07T14:30:11.373Z,24.10
2022-08-07T14:32:47.927Z,23.91
2022-08-07T14:35:44.778Z,25.21
2022-08-07T14:38:26.665Z,23.84
2022-08-07T14:41:05.261Z,23.64
2022-08-07T14:43:57.644Z,23.56
2022-08-07T14:46:31.516Z,24.47
2022-08-07T14:49:17.605Z,25.00
2022-08-07T14:54:42.077Z,26.01
2022-08-07T14:57:19.587Z,26.36
2022-08-07T15:02:36.844Z,26.21
2022-08-07T15:05:04.490Z,25.85
2022-08-07T15:07:51.314Z,25.91
2022-08-07T15:13:19.527Z,25.88
2022-08-07T15:15:52.797Z,24.58
2022-08-07T15:18:34.859Z,24.87
2022-08-07T15:21:44.086Z,25.64
2022-08-07T15:25:15.443Z,25.92
2022-08-07T15:26:58.562Z,26.11
2022-08-07T15:30:09.323Z,25.58
2022-08-07T15:32:39.157Z,24.96
2022-08-07T15:35:12.254Z,25.76
2022-08-07T15:38:04.523Z,25.28
2022-08-07T15:43:53.054Z,26.02
2022-08-07T15:46:32.383Z,24.86
2022-08-07T15:54:33.955Z,24.42
2022-08-07T15:57:02.625Z,24.46
2022-08-07T15:59:40.120Z,25.37
2022-08-07T16:02:24.447Z,25.19
2022-08-07T16:04:59.714Z,24.91
2022-08-07T16:08:31.978Z,25.64
2022-08-07T16:10:24.940Z,24.94
2022-08-07T16:13:17.557Z,24.98
2022-08-07T16:16:48.037Z,25.17
2022-08-07T16:19:15.504Z,25.05
2022-08-07T16:22:07.261Z,24.69
2022-08-07T16:24:55.240Z,24.65
2022-08-07T16:27:39.946Z,24.61
2022-08-07T16:30:30.743Z,25.24
2022-08-07T16:34:01.305Z,25.47
2022-08-07T16:36:19.844Z,24.43
2022-08-07T16:39:02.132Z,24.21
2022-08-07T16:42:08.762Z,24.76
2022-08-07T16:45:24.738Z,24.46
2022-08-07T16:47:56.540Z,24.30
2022-08-07T16:51:21.693Z,24.12
2022-08-07T16:54:10.277Z,24.91
2022-08-07T16:57:15.433Z,24.05
2022-08-07T17:00:10.947Z,23.88
2022-08-07T17:03:05.878Z,24.59
2022-08-07T17:06:19.379Z,23.72
2022-08-07T17:09:10.631Z,23.92
2022-08-07T17:12:03.879Z,24.16
2022-08-07T17:14:56.087Z,24.20
2022-08-07T17:17:46.068Z,23.95
2022-08-07T17:20:22.608Z,24.63
2022-08-07T17:23:33.128Z,24.50
2022-08-07T17:26:30.597Z,24.50
2022-08-07T17:30:14.678Z,24.29
2022-08-07T17:32:30.308Z,24.47
2022-08-07T17:35:49.640Z,24.55
2022-08-07T17:38:32.187Z,24.39
2022-08-07T17:42:03.429Z,24.14
2022-08-07T17:44:33.678Z,24.34
2022-08-07T17:47:16.668Z,24.44
2022-08-07T17:50:16.439Z,23.60
2022-08-07T17:52:59.644Z,24.28
2022-08-07T17:55:56.583Z,24.24
2022-08-07T17:58:39.932Z,24.02
2022-08-07T18:01:27.734Z,23.92
2022-08-07T18:04:21.345Z,24.28
2022-08-07T18:07:20.298Z,24.12
2022-08-07T18:10:05.712Z,24.11
2022-08-07T18:12:51.206Z,23.93
2022-08-07T18:15:33.054Z,23.72
2022-08-07T18:19:02.628Z,24.03
2022-08-07T18:21:41.443Z,23.69
2022-08-07T18:24:34.689Z,23.68
2022-08-07T18:27:38.155Z,23.97
2022-08-07T18:30:30.767Z,23.51
2022-08-07T18:33:34.226Z,23.20
2022-08-07T18:36:33.169Z,23.65
2022-08-07T18:40:06.952Z,23.68
2022-08-07T18:42:20.032Z,23.35
2022-08-07T18:45:44.123Z,23.40
2022-08-07T18:48:01.306Z,23.38
2022-08-07T18:50:46.319Z,23.11
2022-08-07T18:53:36.690Z,23.23
2022-08-07T18:56:12.591Z,22.81
2022-08-07T18:59:00.792Z,23.00
2022-08-07T19:02:32.650Z,23.33
2022-08-07T19:04:38.887Z,23.06
2022-08-07T19:07:35.028Z,23.48
2022-08-07T19:10:06.039Z,23.53
2022-08-07T19:12:58.180Z,23.25
2022-08-07T19:16:05.756Z,23.46
2022-08-07T19:18:44.978Z,22.93
2022-08-07T19:21:44.287Z,22.92
2022-08-07T19:24:29.951Z,23.08
2022-08-07T19:28:28.656Z,23.25
2022-08-07T19:31:01.228Z,23.15
2022-08-07T19:32:45.016Z,23.16
2022-08-07T19:35:17.785Z,23.12
2022-08-07T19:37:56.350Z,23.05
2022-08-07T19:40:31.586Z,22.95
2022-08-07T19:43:07.495Z,22.76
2022-08-07T19:46:07.537Z,22.23
2022-08-07T19:48:29.912Z,22.57
2022-08-07T19:51:20.409Z,22.27
2022-08-07T19:54:35.665Z,22.35
2022-08-07T19:57:52.349Z,22.29
2022-08-07T20:00:29.061Z,22.44
2022-08-07T20:03:01.658Z,22.26
2022-08-07T20:05:37.906Z,21.78
2022-08-07T20:08:24.429Z,22.01
2022-08-07T20:11:01.937Z,22.00
2022-08-07T20:13:48.419Z,22.04
2022-08-07T20:16:35.754Z,22.17
2022-08-07T20:19:05.841Z,21.41
2022-08-07T20:21:41.632Z,22.04
2022-08-07T20:24:22.796Z,21.85
2022-08-07T20:26:54.850Z,21.63
2022-08-07T20:29:48.648Z,21.83
2022-08-07T20:32:23.011Z,21.60
2022-08-07T20:34:55.922Z,21.65
2022-08-07T20:37:37.059Z,21.94
2022-08-07T20:40:33.087Z,21.92
2022-08-07T20:43:02.254Z,21.88
2022-08-07T20:45:33.809Z,21.79
2022-08-07T20:48:28.497Z,21.86
2022-08-07T20:51:01.277Z,21.79
2022-08-07T20:54:04.296Z,21.72
2022-08-07T20:56:16.389Z,21.59
2022-08-07T20:58:46.701Z,21.37
2022-08-07T21:01:19.864Z,21.47
2022-08-07T21:04:18.594Z,21.10
2022-08-07T21:06:39.256Z,21.35
2022-08-07T21:09:17.246Z,21.27
2022-08-07T21:11:52.228Z,21.35
2022-08-07T21:14:31.973Z,21.32
2022-08-07T21:18:20.783Z,21.08
2022-08-07T21:20:00.788Z,21.04
2022-08-07T21:22:38.965Z,20.96
2022-08-07T21:25:12.893Z,21.26
2022-08-07T21:27:53.702Z,21.05
2022-08-07T21:30:25.813Z,20.96
2022-08-07T21:33:12.532Z,20.96
2022-08-07T21:36:06.060Z,20.41
2022-08-07T21:38:53.004Z,20.92
2022-08-07T21:41:37.876Z,20.02
2022-08-07T21:44:28.426Z,20.48
2022-08-07T21:47:41.183Z,20.92
2022-08-07T21:50:31.863Z,20.56
2022-08-07T21:53:07.664Z,20.84
2022-08-07T21:55:51.826Z,20.60
2022-08-07T21:58:46.862Z,19.90
2022-08-07T22:02:07.098Z,20.54
2022-08-07T22:04:23.568Z,19.95
2022-08-07T22:07:08.962Z,20.31
2022-08-07T22:09:53.547Z,20.26
2022-08-07T22:12:31.706Z,20.47
2022-08-07T22:16:45.058Z,20.31
2022-08-07T22:17:57.806Z,20.56
2022-08-07T22:20:44.103Z,20.48
2022-08-07T22:23:24.152Z,20.50
2022-08-07T22:26:13.340Z,20.37
2022-08-07T22:28:48.461Z,20.19
2022-08-07T22:34:29.219Z,20.27
2022-08-07T22:38:01.859Z,20.34
2022-08-07T22:40:35.764Z,19.71
2022-08-07T22:43:09.710Z,20.21
2022-08-07T22:46:41.025Z,20.08
2022-08-07T22:49:11.209Z,19.80
2022-08-07T22:52:08.091Z,19.89
2022-08-07T22:55:14.793Z,19.95
2022-08-07T22:58:20.125Z,19.57
2022-08-07T23:01:06.657Z,19.77
2022-08-07T23:04:01.757Z,19.82
2022-08-07T23:06:59.025Z,19.67
2022-08-07T23:10:05.148Z,19.67
2022-08-07T23:13:04.623Z,19.78
2022-08-07T23:16:07.182Z,19.76
2022-08-07T23:18:57.993Z,19.75
2022-08-07T23:21:29.868Z,19.61
2022-08-07T23:24:18.278Z,18.86
2022-08-07T23:26:50.530Z,18.83
2022-08-07T23:29:43.552Z,18.61
2022-08-07T23:34:21.572Z,19.06
2022-08-07T23:35:54.439Z,19.13
2022-08-07T23:38:45.655Z,18.87
2022-08-07T23:42:04.151Z,19.15
2022-08-07T23:44:59.921Z,19.63
2022-08-07T23:47:57.904Z,19.63
2022-08-07T23:50:39.016Z,19.49
2022-08-07T23:53:19.327Z,19.55
2022-08-07T23:56:24.836Z,19.61
